Item Display Status Humidity-temperature Sensor

Elevation Above Sea Level: 3 m

 

Deployed Sensor

  • Serial Number: 20351076
  • NDBC Property Number: 43309
  • Start Date: 3/30/2020 (09:07:55 Z)
  • End Date: Currently Active
Relative Humidity [%]     6 entries per hour
Showing data from 11/20/2020 (19:40:00 Z) to 11/19/2020 (00:00:01 Z)
Previous Next [ Day | 3-Days | 7-Days ]
First Last
Prev [ Day | 3-Days | 7-Days ] Next
First Last

Start Time:     :
End Time:     :     
Time (in GMT) :00 :50 :40 :30 :20 :10
Previous Next [ Day | 3-Days | 7-Days ]
First Last
Prev [ Day | 3-Days | 7-Days ] Next
First Last


123 => good data
MM => data is determined as missing
-- => data not received/configured
Back to Top Back to Top
11/20/2020 20:00 to 19:10 -- -- 92.43 92.04 91.77 91.60
11/20/2020 19:00 to 18:10 91.25 91.00 90.96 90.61 90.38 90.65
11/20/2020 18:00 to 17:10 90.63 90.88 91.44 91.83 92.00 92.10
11/20/2020 17:00 to 16:10 92.37 92.58 92.68 92.85 93.20 93.31
11/20/2020 16:00 to 15:10 93.37 93.26 93.08 93.01 93.01 92.99
11/20/2020 15:00 to 14:10 92.99 92.87 92.81 92.83 92.81 92.85
11/20/2020 14:00 to 13:10 93.10 93.35 94.41 94.07 94.53 94.99
11/20/2020 13:00 to 12:10 95.30 95.26 94.97 94.78 94.88 94.72
11/20/2020 12:00 to 11:10 95.01 95.09 95.28 95.15 95.11 95.03
11/20/2020 11:00 to 10:10 95.20 95.36 95.47 95.92 96.01 96.32
11/20/2020 10:00 to 9:10 96.50 96.50 96.55 96.63 96.69 96.75
11/20/2020 09:00 to 8:10 96.71 96.65 96.55 96.38 96.34 96.13
11/20/2020 08:00 to 7:10 95.96 95.86 95.63 95.51 95.38 95.18
11/20/2020 07:00 to 6:10 94.82 94.57 94.34 94.03 93.62 93.35
11/20/2020 06:00 to 5:10 93.04 92.81 92.81 92.91 92.99 93.41
11/20/2020 05:00 to 4:10 93.58 93.89 94.16 94.53 94.80 94.88
11/20/2020 04:00 to 3:10 94.78 94.57 94.24 93.85 93.45 93.12
11/20/2020 03:00 to 2:10 92.66 92.04 91.50 91.31 91.23 91.06
11/20/2020 02:00 to 1:10 90.63 90.25 89.73 89.50 89.38 89.23
11/20/2020 01:00 to 0:10 89.32 88.82 89.11 88.80 88.65 88.63
11/20/2020 00:00 to 23:10 88.86 88.92 89.13 89.61 89.80 90.15
11/19/2020 23:00 to 22:10 89.55 88.82 87.95 86.47 87.99 89.73
11/19/2020 22:00 to 21:10 89.94 89.67 89.01 89.23 88.92 88.59
11/19/2020 21:00 to 20:10 88.67 88.09 87.76 87.05 87.18 86.60
11/19/2020 20:00 to 19:10 88.07 89.77 91.15 92.25 93.31 93.72
11/19/2020 19:00 to 18:10 93.45 92.50 91.98 91.48 91.21 91.04
11/19/2020 18:00 to 17:10 91.08 91.10 91.17 91.60 91.56 91.37
11/19/2020 17:00 to 16:10 91.10 90.98 91.12 91.44 91.77 92.08
11/19/2020 16:00 to 15:10 92.72 93.62 94.68 95.84 96.63 97.94
11/19/2020 15:00 to 14:10 97.77 97.67 98.42 98.48 98.96 98.81
11/19/2020 14:00 to 13:10 97.75 99.66 99.77 99.72 99.41 99.77
11/19/2020 13:00 to 12:10 99.81 99.77 99.77 99.72 99.72 99.70
11/19/2020 12:00 to 11:10 99.64 99.56 99.50 99.43 99.39 99.35
11/19/2020 11:00 to 10:10 99.29 99.25 99.23 99.14 99.08 99.08
11/19/2020 10:00 to 9:10 99.02 98.96 98.89 98.81 98.77 98.77
11/19/2020 09:00 to 8:10 98.75 98.75 98.75 98.71 98.60 98.64
11/19/2020 08:00 to 7:10 98.60 98.54 98.50 98.44 98.39 98.27
11/19/2020 07:00 to 6:10 98.15 98.00 97.90 97.75 97.63 97.50
11/19/2020 06:00 to 5:10 97.34 97.23 97.11 96.94 96.77 96.61
11/19/2020 05:00 to 4:10 96.42 96.28 96.17 96.03 95.92 95.78
11/19/2020 04:00 to 3:10 95.65 95.49 95.36 95.24 95.09 94.88
11/19/2020 03:00 to 2:10 94.59 94.32 94.16 93.95 93.55 93.24
11/19/2020 02:00 to 1:10 92.95 92.68 92.27 91.91 91.58 90.88
11/19/2020 01:00 to 0:10 90.19 89.30 88.59 87.99 87.55 87.39

 

 

 

Air Temperature [°C]     6 entries per hour
Showing data from 11/20/2020 (19:40:00 Z) to 11/19/2020 (00:00:01 Z)
Previous Next [ Day | 3-Days | 7-Days ]
First Last
Prev [ Day | 3-Days | 7-Days ] Next
First Last

Start Time:     :
End Time:     :     
Time (in GMT) :00 :50 :40 :30 :20 :10
Previous Next [ Day | 3-Days | 7-Days ]
First Last
Prev [ Day | 3-Days | 7-Days ] Next
First Last


123 => good data
MM => data is determined as missing
-- => data not received/configured
Back to Top Back to Top
11/20/2020 20:00 to 19:10 -- -- 21.48 21.40 21.35 21.32
11/20/2020 19:00 to 18:10 21.36 21.28 21.26 21.22 21.26 21.26
11/20/2020 18:00 to 17:10 21.27 21.20 21.19 21.19 21.14 21.14
11/20/2020 17:00 to 16:10 21.12 21.06 21.05 21.06 21.07 21.09
11/20/2020 16:00 to 15:10 21.08 21.14 21.17 21.14 21.21 21.15
11/20/2020 15:00 to 14:10 21.16 21.17 21.18 21.17 21.18 21.12
11/20/2020 14:00 to 13:10 21.07 21.05 20.79 20.84 20.77 20.60
11/20/2020 13:00 to 12:10 20.56 20.57 20.54 20.57 20.49 20.50
11/20/2020 12:00 to 11:10 20.49 20.47 20.53 20.50 20.53 20.48
11/20/2020 11:00 to 10:10 20.50 20.52 20.48 20.46 20.49 20.45
11/20/2020 10:00 to 9:10 20.47 20.47 20.44 20.48 20.46 20.45
11/20/2020 09:00 to 8:10 20.51 20.54 20.53 20.53 20.56 20.61
11/20/2020 08:00 to 7:10 20.56 20.61 20.61 20.67 20.67 20.72
11/20/2020 07:00 to 6:10 20.69 20.69 20.74 20.79 20.77 20.77
11/20/2020 06:00 to 5:10 20.81 20.82 20.86 20.82 20.81 20.84
11/20/2020 05:00 to 4:10 20.83 20.83 20.84 20.87 20.87 20.91
11/20/2020 04:00 to 3:10 20.92 20.99 20.97 21.00 21.02 21.05
11/20/2020 03:00 to 2:10 21.06 21.12 21.16 21.12 21.16 21.18
11/20/2020 02:00 to 1:10 21.20 21.27 21.24 21.21 21.28 21.26
11/20/2020 01:00 to 0:10 21.30 21.35 21.32 21.46 21.44 21.41
11/20/2020 00:00 to 23:10 21.50 21.49 21.44 21.44 21.40 21.41
11/19/2020 23:00 to 22:10 21.43 21.49 21.56 21.57 21.38 21.37
11/19/2020 22:00 to 21:10 21.47 21.49 21.47 21.39 21.52 21.46
11/19/2020 21:00 to 20:10 21.57 21.57 21.67 21.67 21.61 21.69
11/19/2020 20:00 to 19:10 21.70 21.57 21.45 21.41 21.30 21.36
11/19/2020 19:00 to 18:10 21.42 21.43 21.40 21.34 21.37 21.42
11/19/2020 18:00 to 17:10 21.40 21.39 21.37 21.37 21.39 21.42
11/19/2020 17:00 to 16:10 21.39 21.31 21.29 21.28 21.25 21.29
11/19/2020 16:00 to 15:10 21.27 21.16 21.12 21.02 21.01 20.79
11/19/2020 15:00 to 14:10 20.93 20.99 20.81 20.80 20.67 20.74
11/19/2020 14:00 to 13:10 20.96 20.52 20.49 20.47 20.52 20.42
11/19/2020 13:00 to 12:10 20.42 20.39 20.40 20.39 20.39 20.41
11/19/2020 12:00 to 11:10 20.43 20.42 20.42 20.42 20.37 20.39
11/19/2020 11:00 to 10:10 20.41 20.44 20.45 20.43 20.43 20.45
11/19/2020 10:00 to 9:10 20.46 20.41 20.42 20.41 20.44 20.38
11/19/2020 09:00 to 8:10 20.42 20.43 20.45 20.45 20.43 20.43
11/19/2020 08:00 to 7:10 20.47 20.47 20.50 20.53 20.54 20.53
11/19/2020 07:00 to 6:10 20.53 20.53 20.55 20.56 20.57 20.58
11/19/2020 06:00 to 5:10 20.59 20.59 20.61 20.63 20.64 20.67
11/19/2020 05:00 to 4:10 20.69 20.71 20.72 20.75 20.77 20.79
11/19/2020 04:00 to 3:10 20.82 20.80 20.86 20.87 20.88 20.93
11/19/2020 03:00 to 2:10 20.95 20.97 21.01 21.02 21.03 21.01
11/19/2020 02:00 to 1:10 21.06 21.10 21.12 21.11 21.15 21.22
11/19/2020 01:00 to 0:10 21.27 21.40 21.46 21.55 21.55 21.61